createdAt,value
2017-12-17T00:00:58.877Z,3.30
2017-12-17T00:03:31.238Z,3.10
2017-12-17T00:05:59.207Z,2.10
2017-12-17T00:08:27.282Z,3.40
2017-12-17T00:10:53.972Z,3.23
2017-12-17T00:13:20.383Z,2.30
2017-12-17T00:15:46.824Z,3.30
2017-12-17T00:18:13.186Z,2.20
2017-12-17T00:20:39.730Z,2.87
2017-12-17T00:23:06.100Z,2.37
2017-12-17T00:25:32.461Z,2.40
2017-12-17T00:27:58.799Z,2.10
2017-12-17T00:30:25.111Z,2.40
2017-12-17T00:32:51.542Z,1.80
2017-12-17T00:35:17.906Z,1.70
2017-12-17T00:37:44.220Z,2.10
2017-12-17T00:40:11.271Z,2.10
2017-12-17T00:42:37.592Z,1.73
2017-12-17T00:45:04.630Z,2.23
2017-12-17T00:47:30.947Z,2.03
2017-12-17T00:49:57.292Z,1.60
2017-12-17T00:52:23.576Z,1.73
2017-12-17T00:54:49.874Z,2.40
2017-12-17T00:57:16.207Z,27.23
2017-12-17T00:59:42.499Z,7.43
2017-12-17T01:02:09.558Z,3.43
2017-12-17T01:04:36.028Z,2.70
2017-12-17T01:07:02.347Z,2.40
2017-12-17T01:09:29.387Z,2.97
2017-12-17T01:11:56.438Z,2.80
2017-12-17T01:14:22.799Z,2.77
2017-12-17T01:16:49.119Z,2.97
2017-12-17T01:19:15.455Z,3.23
2017-12-17T01:21:41.755Z,3.23
2017-12-17T01:24:08.048Z,2.57
2017-12-17T01:26:34.364Z,2.80
2017-12-17T01:29:00.655Z,2.80
2017-12-17T01:31:26.943Z,2.57
2017-12-17T01:33:53.988Z,4.07
2017-12-17T01:36:21.034Z,3.13
2017-12-17T01:38:47.367Z,3.13
2017-12-17T01:41:13.839Z,2.67
2017-12-17T01:43:40.129Z,2.70
2017-12-17T01:46:09.679Z,2.90
2017-12-17T01:48:38.744Z,3.37
2017-12-17T01:51:08.562Z,2.43
2017-12-17T01:53:38.964Z,2.23
2017-12-17T01:56:08.292Z,2.50
2017-12-17T01:58:34.602Z,2.67
2017-12-17T02:01:00.962Z,2.23
2017-12-17T02:03:28.020Z,2.33
2017-12-17T02:05:54.321Z,1.73
2017-12-17T02:08:21.425Z,2.40
2017-12-17T02:10:47.749Z,2.47
2017-12-17T02:13:14.095Z,2.17
2017-12-17T02:15:40.441Z,2.73
2017-12-17T02:18:06.752Z,2.13
2017-12-17T02:20:33.073Z,2.30
2017-12-17T02:22:59.407Z,2.40
2017-12-17T02:25:25.717Z,1.87
2017-12-17T02:27:52.674Z,2.30
2017-12-17T02:30:19.016Z,2.17
2017-12-17T02:32:46.593Z,2.03
2017-12-17T02:35:12.904Z,2.57
2017-12-17T02:37:39.245Z,2.10
2017-12-17T02:40:05.563Z,2.20
2017-12-17T02:42:31.902Z,2.60
2017-12-17T02:44:58.996Z,2.70
2017-12-17T02:47:25.318Z,2.07
2017-12-17T02:49:51.640Z,2.47
2017-12-17T02:52:17.997Z,2.20
2017-12-17T02:54:45.071Z,2.40
2017-12-17T02:57:11.390Z,2.60
2017-12-17T02:59:37.768Z,2.40
2017-12-17T03:02:04.844Z,2.87
2017-12-17T03:04:31.154Z,2.47
2017-12-17T03:06:57.528Z,2.57
2017-12-17T03:09:24.585Z,2.57
2017-12-17T03:11:50.901Z,2.33
2017-12-17T03:14:17.332Z,2.57
2017-12-17T03:16:43.659Z,2.93
2017-12-17T03:19:09.977Z,2.70
2017-12-17T03:21:36.362Z,2.67
2017-12-17T03:24:02.665Z,2.87
2017-12-17T03:26:29.727Z,2.97
2017-12-17T03:28:56.080Z,2.60
2017-12-17T03:31:23.037Z,3.30
2017-12-17T03:33:50.111Z,2.77
2017-12-17T03:36:16.491Z,3.23
2017-12-17T03:38:43.550Z,2.63
2017-12-17T03:41:09.872Z,2.97
2017-12-17T03:43:36.211Z,3.30
2017-12-17T03:46:02.535Z,2.93
2017-12-17T03:48:28.857Z,3.00
2017-12-17T03:50:55.197Z,3.20
2017-12-17T03:53:21.506Z,3.13
2017-12-17T03:55:47.824Z,2.63
2017-12-17T03:58:14.176Z,3.00
2017-12-17T04:00:40.488Z,3.00
2017-12-17T04:03:06.804Z,2.47
2017-12-17T04:05:33.143Z,2.70
2017-12-17T04:07:59.479Z,2.63
2017-12-17T04:10:25.785Z,3.00
2017-12-17T04:12:52.123Z,2.97
2017-12-17T04:15:18.463Z,2.10
2017-12-17T04:17:45.530Z,2.37
2017-12-17T04:20:11.921Z,2.27
2017-12-17T04:22:38.970Z,2.40
2017-12-17T04:25:05.274Z,2.37
2017-12-17T04:27:32.350Z,2.03
2017-12-17T04:29:58.648Z,2.13
2017-12-17T04:32:24.950Z,2.27
2017-12-17T04:34:51.258Z,2.00
2017-12-17T04:37:18.310Z,2.30
2017-12-17T04:39:44.615Z,2.33
2017-12-17T04:42:10.951Z,2.27
2017-12-17T04:44:37.257Z,2.33
2017-12-17T04:47:03.560Z,2.37
2017-12-17T04:49:29.899Z,2.20
2017-12-17T04:51:56.194Z,2.10
2017-12-17T04:54:22.505Z,1.40
2017-12-17T04:56:48.841Z,1.57
2017-12-17T04:59:15.158Z,1.70
2017-12-17T05:01:41.455Z,1.23
2017-12-17T05:04:07.791Z,1.43
2017-12-17T05:06:34.126Z,1.47
2017-12-17T05:09:00.432Z,1.37
2017-12-17T05:11:26.767Z,1.97
2017-12-17T05:13:53.054Z,1.40
2017-12-17T05:16:19.362Z,1.40
2017-12-17T05:18:45.713Z,1.70
2017-12-17T05:21:12.031Z,1.30
2017-12-17T05:23:38.336Z,1.57
2017-12-17T05:26:04.678Z,1.20
2017-12-17T05:28:31.001Z,1.97
2017-12-17T05:30:57.307Z,1.27
2017-12-17T05:33:23.634Z,1.03
2017-12-17T05:35:49.937Z,1.40
2017-12-17T05:38:16.273Z,1.30
2017-12-17T05:40:43.334Z,1.40
2017-12-17T05:43:09.645Z,2.23
2017-12-17T05:45:35.954Z,1.20
2017-12-17T05:48:02.311Z,1.43
2017-12-17T05:50:29.686Z,1.73
2017-12-17T05:52:55.998Z,1.30
2017-12-17T05:55:22.335Z,0.97
2017-12-17T05:57:49.383Z,1.30
2017-12-17T06:00:15.696Z,1.10
2017-12-17T06:02:42.030Z,1.10
2017-12-17T06:05:08.335Z,1.23
2017-12-17T06:07:34.703Z,1.50
2017-12-17T06:10:01.044Z,1.10
2017-12-17T06:12:28.091Z,1.43
2017-12-17T06:14:54.382Z,1.50
2017-12-17T06:17:21.456Z,1.83
2017-12-17T06:19:47.768Z,1.47
2017-12-17T06:22:14.075Z,1.07
2017-12-17T06:24:40.408Z,1.53
2017-12-17T06:27:06.752Z,1.77
2017-12-17T06:29:33.043Z,1.20
2017-12-17T06:31:59.371Z,0.87
2017-12-17T06:34:25.680Z,1.00
2017-12-17T06:36:52.028Z,1.17
2017-12-17T06:39:18.466Z,1.20
2017-12-17T06:41:45.554Z,0.97
2017-12-17T06:44:11.875Z,1.10
2017-12-17T06:46:38.197Z,0.90
2017-12-17T06:49:04.510Z,0.97
2017-12-17T06:51:30.817Z,1.07
2017-12-17T06:53:57.295Z,1.00
2017-12-17T06:56:24.347Z,1.00
2017-12-17T06:58:50.655Z,1.00
2017-12-17T07:01:16.994Z,1.30
2017-12-17T07:03:43.322Z,1.30
2017-12-17T07:06:09.642Z,1.37
2017-12-17T07:08:36.011Z,0.83
2017-12-17T07:11:03.070Z,1.10
2017-12-17T07:13:29.370Z,1.40
2017-12-17T07:15:55.694Z,1.03
2017-12-17T07:18:22.063Z,2.40
2017-12-17T07:20:48.366Z,1.90
2017-12-17T07:23:14.709Z,1.23
2017-12-17T07:25:41.823Z,1.77
2017-12-17T07:28:08.119Z,1.03
2017-12-17T07:30:34.467Z,1.30
2017-12-17T07:33:00.766Z,1.73
2017-12-17T07:35:27.082Z,2.13
2017-12-17T07:37:53.410Z,1.50
2017-12-17T07:40:19.755Z,1.63
2017-12-17T07:42:46.076Z,1.53
2017-12-17T07:45:12.422Z,1.03
2017-12-17T07:47:38.726Z,0.60
2017-12-17T07:50:05.035Z,1.67
2017-12-17T07:52:31.367Z,1.50
2017-12-17T07:54:57.682Z,1.10
2017-12-17T07:57:23.986Z,1.40
2017-12-17T07:59:50.326Z,1.30
2017-12-17T08:02:16.642Z,0.77
2017-12-17T08:04:42.956Z,1.50
2017-12-17T08:07:09.313Z,1.73
2017-12-17T08:09:35.619Z,2.00
2017-12-17T08:12:01.951Z,1.77
2017-12-17T08:14:29.006Z,1.70
2017-12-17T08:16:55.325Z,2.77
2017-12-17T08:19:21.639Z,2.50
2017-12-17T08:21:47.970Z,2.60
2017-12-17T08:24:14.563Z,2.53
2017-12-17T08:26:40.869Z,2.83
2017-12-17T08:29:07.934Z,2.30
2017-12-17T08:31:34.312Z,2.73
2017-12-17T08:34:00.615Z,3.17
2017-12-17T08:36:26.938Z,2.80
2017-12-17T08:38:53.251Z,3.50
2017-12-17T08:41:19.557Z,2.73
2017-12-17T08:43:45.902Z,3.40
2017-12-17T08:46:12.961Z,3.87
2017-12-17T08:48:39.266Z,3.67
2017-12-17T08:51:05.592Z,3.27
2017-12-17T08:53:31.894Z,3.17
2017-12-17T08:55:58.931Z,3.67
2017-12-17T08:58:25.271Z,3.97
2017-12-17T09:00:51.576Z,3.33
2017-12-17T09:03:17.954Z,3.00
2017-12-17T09:05:44.319Z,2.77
2017-12-17T09:08:10.653Z,2.60
2017-12-17T09:10:36.971Z,2.30
2017-12-17T09:13:03.299Z,3.57
2017-12-17T09:15:29.609Z,2.83
2017-12-17T09:17:55.915Z,3.13
2017-12-17T09:20:22.250Z,2.50
2017-12-17T09:22:48.573Z,3.30
2017-12-17T09:25:14.890Z,2.70
2017-12-17T09:27:41.585Z,2.60
2017-12-17T09:30:07.907Z,2.50
2017-12-17T09:32:34.217Z,2.60
2017-12-17T09:35:00.563Z,2.87
2017-12-17T09:37:26.959Z,2.90
2017-12-17T09:39:53.305Z,2.43
2017-12-17T09:42:20.463Z,2.80
2017-12-17T09:44:46.886Z,2.77
2017-12-17T09:47:13.241Z,3.13
2017-12-17T09:49:39.733Z,2.70
2017-12-17T09:52:06.052Z,2.57
2017-12-17T09:54:32.639Z,3.10
2017-12-17T09:56:59.730Z,2.90
2017-12-17T09:59:26.046Z,2.30
2017-12-17T10:01:52.350Z,2.80
2017-12-17T10:04:18.721Z,3.23
2017-12-17T10:06:45.801Z,3.53
2017-12-17T10:09:12.135Z,2.83
2017-12-17T10:11:38.784Z,2.80
2017-12-17T10:14:05.102Z,3.30
2017-12-17T10:16:31.439Z,2.70
2017-12-17T10:18:58.148Z,3.13
2017-12-17T10:21:24.467Z,3.47
2017-12-17T10:23:50.795Z,3.07
2017-12-17T10:26:17.233Z,3.00
2017-12-17T10:28:43.574Z,3.53
2017-12-17T10:31:09.913Z,4.60
2017-12-17T10:33:36.254Z,4.07
2017-12-17T10:36:02.575Z,3.57
2017-12-17T10:38:28.896Z,2.90
2017-12-17T10:40:55.438Z,2.80
2017-12-17T10:43:21.782Z,2.47
2017-12-17T10:45:48.207Z,2.90
2017-12-17T10:48:15.353Z,3.17
2017-12-17T10:50:42.429Z,3.40
2017-12-17T10:53:08.748Z,2.90
2017-12-17T10:55:35.108Z,3.60
2017-12-17T10:58:02.166Z,3.70
2017-12-17T11:00:28.470Z,2.63
2017-12-17T11:02:54.863Z,3.07
2017-12-17T11:05:21.182Z,4.03
2017-12-17T11:07:47.511Z,4.00
2017-12-17T11:10:14.605Z,3.40
2017-12-17T11:12:40.906Z,4.27
2017-12-17T11:15:07.224Z,3.93
2017-12-17T11:17:34.387Z,3.10
2017-12-17T11:20:00.718Z,3.50
2017-12-17T11:22:27.007Z,2.93
2017-12-17T11:24:55.179Z,2.70
2017-12-17T11:27:21.479Z,2.90
2017-12-17T11:29:48.531Z,3.33
2017-12-17T11:32:14.867Z,2.63
2017-12-17T11:34:41.244Z,2.40
2017-12-17T11:37:08.297Z,3.13
2017-12-17T11:39:34.625Z,2.77
2017-12-17T11:42:00.996Z,3.13
2017-12-17T11:44:27.319Z,2.63
2017-12-17T11:46:53.682Z,3.50
2017-12-17T11:49:19.993Z,3.70
2017-12-17T11:51:46.298Z,3.23
2017-12-17T11:54:12.675Z,3.97
2017-12-17T11:56:38.971Z,3.07
2017-12-17T11:59:05.307Z,3.27
2017-12-17T12:01:31.637Z,2.83
2017-12-17T12:04:04.311Z,3.00
2017-12-17T12:06:30.866Z,3.60
2017-12-17T12:08:57.207Z,3.30
2017-12-17T12:11:23.564Z,3.40
2017-12-17T12:13:50.661Z,3.50
2017-12-17T12:16:16.966Z,3.97
2017-12-17T12:18:43.314Z,3.23
2017-12-17T12:21:09.633Z,3.77
2017-12-17T12:23:35.942Z,4.47
2017-12-17T12:26:02.266Z,4.30
2017-12-17T12:28:28.715Z,3.20
2017-12-17T12:30:55.054Z,3.90
2017-12-17T12:33:21.550Z,3.27
2017-12-17T12:35:47.874Z,3.00
2017-12-17T12:38:14.185Z,3.23
2017-12-17T12:40:40.622Z,4.13
2017-12-17T12:43:06.950Z,4.90
2017-12-17T12:45:33.320Z,4.40
2017-12-17T12:48:00.427Z,5.27
2017-12-17T12:50:26.757Z,7.80
2017-12-17T12:52:53.091Z,10.93
2017-12-17T12:55:21.221Z,8.27
2017-12-17T12:57:47.550Z,6.93
2017-12-17T13:00:14.601Z,5.20
2017-12-17T13:02:40.913Z,7.73
2017-12-17T13:05:07.308Z,7.63
2017-12-17T13:07:34.398Z,8.00
2017-12-17T13:10:00.711Z,10.30
2017-12-17T13:12:27.091Z,8.50
2017-12-17T13:14:54.178Z,8.10
2017-12-17T13:17:20.499Z,7.73
2017-12-17T13:19:46.825Z,9.63
2017-12-17T13:22:13.127Z,8.83
2017-12-17T13:24:39.447Z,7.90
2017-12-17T13:27:05.775Z,7.93
2017-12-17T13:29:32.100Z,15.37
2017-12-17T13:31:58.420Z,6.97
2017-12-17T13:34:24.754Z,7.43
2017-12-17T13:36:51.803Z,6.37
2017-12-17T13:39:18.114Z,4.20
2017-12-17T13:41:45.621Z,4.80
2017-12-17T13:44:14.300Z,5.70
2017-12-17T13:46:40.635Z,6.20
2017-12-17T13:49:07.713Z,5.80
2017-12-17T13:51:34.008Z,5.57
2017-12-17T13:54:00.305Z,4.93
2017-12-17T13:56:27.479Z,5.10
2017-12-17T13:58:53.800Z,6.13
2017-12-17T14:01:20.153Z,6.40
2017-12-17T14:03:46.629Z,9.03
2017-12-17T14:06:12.936Z,8.70
2017-12-17T14:08:39.286Z,7.47
2017-12-17T14:11:05.594Z,5.80
2017-12-17T14:13:31.903Z,5.17
2017-12-17T14:15:58.250Z,6.20
2017-12-17T14:18:24.599Z,6.23
2017-12-17T14:20:50.907Z,6.40
2017-12-17T14:23:17.963Z,5.73
2017-12-17T14:25:44.316Z,6.50
2017-12-17T14:28:10.639Z,6.30
2017-12-17T14:30:36.951Z,8.63
2017-12-17T14:33:03.284Z,7.40
2017-12-17T14:35:29.597Z,6.77
2017-12-17T14:37:55.929Z,6.67
2017-12-17T14:40:23.894Z,6.23
2017-12-17T14:42:51.315Z,6.40
2017-12-17T14:45:17.628Z,5.90
2017-12-17T14:47:43.970Z,6.57
2017-12-17T14:50:10.359Z,6.93
2017-12-17T14:52:36.672Z,6.57
2017-12-17T14:55:03.011Z,9.77
2017-12-17T14:57:30.121Z,9.87
2017-12-17T14:59:56.429Z,10.93
2017-12-17T15:02:22.762Z,10.03
2017-12-17T15:04:49.813Z,8.50
2017-12-17T15:07:16.906Z,8.70
2017-12-17T15:09:43.262Z,8.03
2017-12-17T15:12:10.318Z,8.40
2017-12-17T15:14:36.623Z,8.73
2017-12-17T15:17:02.946Z,7.47
2017-12-17T15:19:29.258Z,8.57
2017-12-17T15:21:55.565Z,9.63
2017-12-17T15:24:22.641Z,9.30
2017-12-17T15:26:48.959Z,8.40
2017-12-17T15:29:15.259Z,8.03
2017-12-17T15:31:41.586Z,8.13
2017-12-17T15:34:07.893Z,8.50
2017-12-17T15:36:34.927Z,9.17
2017-12-17T15:39:01.273Z,8.07
2017-12-17T15:41:27.606Z,8.10
2017-12-17T15:43:54.668Z,9.07
2017-12-17T15:46:21.004Z,7.97
2017-12-17T15:48:47.301Z,8.83
2017-12-17T15:51:13.607Z,9.00
2017-12-17T15:53:40.677Z,9.50
2017-12-17T15:56:06.987Z,10.33
2017-12-17T15:58:33.294Z,9.43
2017-12-17T16:00:59.618Z,9.13
2017-12-17T16:03:25.948Z,10.63
2017-12-17T16:05:52.254Z,10.13
2017-12-17T16:08:18.647Z,8.87
2017-12-17T16:10:44.954Z,9.27
2017-12-17T16:13:11.265Z,8.70
2017-12-17T16:15:38.334Z,9.80
2017-12-17T16:18:04.630Z,9.93
2017-12-17T16:20:30.918Z,11.77
2017-12-17T16:22:58.003Z,12.03
2017-12-17T16:25:24.367Z,11.10
2017-12-17T16:27:51.396Z,10.23
2017-12-17T16:30:17.731Z,9.20
2017-12-17T16:32:44.059Z,9.47
2017-12-17T16:35:10.361Z,9.13
2017-12-17T16:37:37.425Z,8.37
2017-12-17T16:40:03.701Z,10.27
2017-12-17T16:42:30.742Z,10.17
2017-12-17T16:44:57.047Z,9.37
2017-12-17T16:47:23.328Z,8.40
2017-12-17T16:49:49.631Z,7.47
2017-12-17T16:52:15.967Z,8.80
2017-12-17T16:54:42.235Z,7.27
2017-12-17T16:59:41.554Z,7.90
2017-12-17T17:02:07.843Z,7.93
2017-12-17T17:04:34.140Z,7.27
2017-12-17T17:07:00.458Z,7.50
2017-12-17T17:09:26.739Z,7.73
2017-12-17T17:11:53.056Z,8.07
2017-12-17T17:14:19.385Z,7.90
2017-12-17T17:16:46.392Z,6.90
2017-12-17T17:19:12.712Z,7.00
2017-12-17T17:21:39.027Z,7.03
2017-12-17T17:24:05.347Z,7.70
2017-12-17T17:26:31.624Z,8.33
2017-12-17T17:28:57.924Z,7.30
2017-12-17T17:31:24.265Z,7.10
2017-12-17T17:33:50.542Z,7.73
2017-12-17T17:36:17.598Z,6.63
2017-12-17T17:38:43.890Z,8.20
2017-12-17T17:41:10.935Z,7.43
2017-12-17T17:43:37.276Z,8.23
2017-12-17T17:46:03.554Z,8.47
2017-12-17T17:48:29.819Z,8.83
2017-12-17T17:50:56.146Z,8.43
2017-12-17T17:53:22.415Z,8.53
2017-12-17T17:55:48.685Z,10.20
2017-12-17T17:58:14.984Z,9.90
2017-12-17T18:00:41.284Z,9.40
2017-12-17T18:03:07.588Z,10.13
2017-12-17T18:05:33.916Z,9.30
2017-12-17T18:08:00.203Z,8.73
2017-12-17T18:10:26.504Z,9.30
2017-12-17T18:12:53.543Z,8.67
2017-12-17T18:15:20.584Z,8.53
2017-12-17T18:17:46.866Z,10.10
2017-12-17T18:20:13.179Z,9.60
2017-12-17T18:22:39.451Z,8.07
2017-12-17T18:25:05.730Z,9.17
2017-12-17T18:27:32.786Z,8.70
2017-12-17T18:29:59.055Z,8.27
2017-12-17T18:32:25.326Z,7.93
2017-12-17T18:34:51.635Z,7.83
2017-12-17T18:37:17.910Z,9.77
2017-12-17T18:39:44.915Z,8.43
2017-12-17T18:42:11.200Z,7.90
2017-12-17T18:44:37.467Z,8.30
2017-12-17T18:47:03.722Z,9.07
2017-12-17T18:49:30.015Z,10.03
2017-12-17T18:51:57.017Z,8.53
2017-12-17T18:54:23.301Z,8.03
2017-12-17T18:56:49.606Z,7.57
2017-12-17T18:59:15.883Z,10.43
2017-12-17T19:01:42.885Z,8.10
2017-12-17T19:04:09.191Z,9.57
2017-12-17T19:06:35.499Z,8.70
2017-12-17T19:09:01.966Z,8.83
2017-12-17T19:11:29.089Z,10.67
2017-12-17T19:13:55.431Z,9.57
2017-12-17T19:16:21.721Z,9.13
2017-12-17T19:18:48.112Z,9.17
2017-12-17T19:21:14.677Z,9.27
2017-12-17T19:23:41.695Z,10.17
2017-12-17T19:26:08.768Z,9.13
2017-12-17T19:28:35.055Z,9.60
2017-12-17T19:31:02.069Z,9.37
2017-12-17T19:33:28.355Z,9.87
2017-12-17T19:35:54.625Z,9.53
2017-12-17T19:38:21.662Z,8.40
2017-12-17T19:40:47.978Z,10.43
2017-12-17T19:43:14.271Z,11.43
2017-12-17T19:45:40.568Z,8.23
2017-12-17T19:48:06.855Z,10.97
2017-12-17T19:50:34.520Z,10.77
2017-12-17T19:53:00.827Z,11.00
2017-12-17T19:55:27.118Z,10.77
2017-12-17T19:57:53.422Z,10.63
2017-12-17T20:00:19.703Z,10.03
2017-12-17T20:02:46.011Z,10.10
2017-12-17T20:05:12.273Z,10.77
2017-12-17T20:07:38.574Z,10.30
2017-12-17T20:10:05.673Z,10.20
2017-12-17T20:12:31.899Z,10.53
2017-12-17T20:14:58.254Z,9.83
2017-12-17T20:17:24.543Z,10.60
2017-12-17T20:19:51.566Z,11.23
2017-12-17T20:22:17.971Z,11.10
2017-12-17T20:24:44.298Z,11.30
2017-12-17T20:27:10.606Z,10.60
2017-12-17T20:29:36.888Z,11.23
2017-12-17T20:32:03.211Z,11.10
2017-12-17T20:34:29.525Z,10.40
2017-12-17T20:36:55.801Z,9.70
2017-12-17T20:39:22.081Z,12.07
2017-12-17T20:41:48.353Z,10.87
2017-12-17T20:44:14.607Z,11.87
2017-12-17T20:46:40.935Z,10.30
2017-12-17T20:49:07.201Z,12.33
2017-12-17T20:51:33.489Z,12.40
2017-12-17T20:53:59.955Z,12.67
2017-12-17T20:56:26.235Z,12.13
2017-12-17T20:58:52.524Z,13.27
2017-12-17T21:01:19.638Z,14.07
2017-12-17T21:03:45.910Z,13.50
2017-12-17T21:06:12.167Z,12.17
2017-12-17T21:08:38.490Z,13.13
2017-12-17T21:11:04.746Z,12.30
2017-12-17T21:13:31.005Z,12.90
2017-12-17T21:15:57.389Z,13.43
2017-12-17T21:18:23.663Z,13.10
2017-12-17T21:20:50.666Z,13.27
2017-12-17T21:23:16.997Z,13.50
2017-12-17T21:25:43.362Z,12.33
2017-12-17T21:28:09.627Z,13.13
2017-12-17T21:30:35.916Z,13.20
2017-12-17T21:33:02.200Z,13.43
2017-12-17T21:35:28.457Z,11.63
2017-12-17T21:37:54.752Z,13.00
2017-12-17T21:40:21.014Z,11.97
2017-12-17T21:42:47.273Z,12.97
2017-12-17T21:45:13.638Z,13.93
2017-12-17T21:47:39.909Z,14.00
2017-12-17T21:50:06.190Z,14.40
2017-12-17T21:52:33.223Z,14.53
2017-12-17T21:54:59.569Z,14.30
2017-12-17T21:57:26.639Z,14.10
2017-12-17T21:59:52.928Z,14.40
2017-12-17T22:02:20.041Z,15.17
2017-12-17T22:04:46.293Z,15.80
2017-12-17T22:07:12.603Z,14.67
2017-12-17T22:09:38.863Z,14.30
2017-12-17T22:12:05.874Z,14.93
2017-12-17T22:14:32.161Z,15.17
2017-12-17T22:16:58.407Z,14.23
2017-12-17T22:19:24.687Z,14.10
2017-12-17T22:21:50.970Z,16.40
2017-12-17T22:24:17.230Z,14.77
2017-12-17T22:26:43.491Z,14.17
2017-12-17T22:29:10.573Z,15.47
2017-12-17T22:31:36.856Z,15.17
2017-12-17T22:34:03.213Z,14.57
2017-12-17T22:36:29.529Z,15.33
2017-12-17T22:38:55.773Z,12.30
2017-12-17T22:41:22.121Z,16.83
2017-12-17T22:43:49.286Z,18.87
2017-12-17T22:46:15.595Z,15.97
2017-12-17T22:48:41.882Z,16.53
2017-12-17T22:51:08.201Z,17.97
2017-12-17T22:53:34.694Z,18.40
2017-12-17T22:56:01.011Z,19.57
2017-12-17T22:58:27.306Z,18.23
2017-12-17T23:00:53.649Z,19.17
2017-12-17T23:03:20.134Z,18.57
2017-12-17T23:05:46.480Z,17.17
2017-12-17T23:08:13.135Z,17.63
2017-12-17T23:10:40.290Z,17.50
2017-12-17T23:13:06.606Z,18.03
2017-12-17T23:15:32.895Z,18.40
2017-12-17T23:17:59.911Z,17.83
2017-12-17T23:20:26.396Z,18.60
2017-12-17T23:22:52.709Z,19.37
2017-12-17T23:25:19.004Z,20.40
2017-12-17T23:27:45.336Z,19.50
2017-12-17T23:30:12.376Z,21.43
2017-12-17T23:32:38.662Z,20.07
2017-12-17T23:35:04.967Z,20.20
2017-12-17T23:37:32.034Z,19.73
2017-12-17T23:39:58.340Z,17.13
2017-12-17T23:42:24.637Z,19.97
2017-12-17T23:44:50.926Z,18.10
2017-12-17T23:47:17.224Z,20.50
2017-12-17T23:49:43.525Z,21.33
2017-12-17T23:52:09.839Z,18.33
2017-12-17T23:54:36.122Z,18.23
2017-12-17T23:57:02.434Z,19.60
2017-12-17T23:59:28.730Z,19.03
